Young Endeavour — VMGW — position and weather

sailwx.info

Track history (hours):
 
Tides and Currents Weather Stations Pressure Air Temp Water Temp Dewpoint Dewpoint Depression Visibility Wind Speed Wind Dir Waves Ship Positions

Young Endeavour (Australia)

Ship's website: http://www.youngendeavour.gov.au/

Last reported at 2020-Jan-19 13:00 UTC. Time now 2020-Jan-19 15:37 UTC.
Position S 12°32' E 130°57'.

Length 44 m; beam 7.8 m; draft 4 m.

Type: Other ship. MMSI: 503000136.

Date/timePositionNaut miles runAvg speedWind from/ knotsBaromVisibWave heightAir tempDewpointWater temp
2020-Jan-19 13:00S 12°32' E 130°57'0 0.0
2020-Jan-19 10:57S 12°32' E 130°57'0 0.1
2020-Jan-19 10:30S 12°32' E 130°57'0 0.1
2020-Jan-19 10:00S 12°32' E 130°57'0 0.0
2020-Jan-19 08:30S 12°32' E 130°57'0 0.0
2020-Jan-19 06:30S 12°32' E 130°57'20441027.1
2020-Jan-19 04:30S 43°15' E 147°36'2044237353.2
2020-Jan-19 04:30S 12°32' E 130°57'20382067.4
2020-Jan-19 03:31S 43°10' E 147°33'2038126503.6
2020-Jan-19 03:30S 12°32' E 130°57'2025815.4
2020-Jan-19 01:01S 43°00' E 147°22'2025142969.6
2020-Jan-19 01:00S 12°32' E 130°57'20234163.0
2020-Jan-19 00:31S 42°56' E 147°23'202331249.4
2020-Jan-19 00:27S 12°32' E 130°57'0 0.0
2020-Jan-18 21:59S 12°32' E 130°57'0 0.0
2020-Jan-18 21:30S 12°32' E 130°57'0 0.1
2020-Jan-18 20:30S 12°32' E 130°56'0 0.1
2020-Jan-18 19:27S 12°32' E 130°57'0 0.0
2020-Jan-18 17:57S 12°32' E 130°56'0 0.1
2020-Jan-18 17:30S 12°32' E 130°56'0 0.1
2020-Jan-18 16:30S 12°32' E 130°57'0 0.0
2020-Jan-18 15:30S 12°32' E 130°57'0 0.0
2020-Jan-18 15:00S 12°32' E 130°57'0 0.0
2020-Jan-18 13:30S 12°32' E 130°57'0 0.0
2020-Jan-18 10:26S 12°32' E 130°57'0 0.0
2020-Jan-18 10:00S 12°32' E 130°57'0 0.0
2020-Jan-18 06:27S 12°32' E 130°57'0 0.0
2020-Jan-18 05:51S 12°32' E 130°57'0 0.0
2020-Jan-18 04:00S 12°32' E 130°57'0 0.0
2020-Jan-18 01:59S 12°32' E 130°57'0 0.0
2020-Jan-18 00:57S 12°32' E 130°57'0 0.0
2020-Jan-18 00:00S 12°32' E 130°57'0 0.0
2020-Jan-17 19:59S 12°32' E 130°56'0 0.0
2020-Jan-17 18:30S 12°32' E 130°56'0 0.0
2020-Jan-17 17:29S 12°32' E 130°56'0 0.0
2020-Jan-17 16:29S 12°32' E 130°56'0 0.0
2020-Jan-17 15:00S 12°32' E 130°56'0 0.0
2020-Jan-17 11:30S 12°32' E 130°57'0 0.0
2020-Jan-17 08:29S 12°32' E 130°57'0 0.0
2020-Jan-17 07:00S 12°32' E 130°56'0 0.0
2020-Jan-17 05:00S 12°32' E 130°56'0 0.0
2020-Jan-17 04:29S 12°32' E 130°56'0 0.0
2020-Jan-17 04:00S 12°32' E 130°56'0 0.0
2020-Jan-17 02:26S 12°32' E 130°56'0 0.0
2020-Jan-17 00:26S 12°32' E 130°57'0 0.0
2020-Jan-16 17:29S 12°32' E 130°56'0 0.0
2020-Jan-16 16:59S 12°32' E 130°56'0 0.0
2020-Jan-16 13:59S 12°32' E 130°56'0 0.1
2020-Jan-16 12:59S 12°32' E 130°57'0 0.0
2020-Jan-16 12:29S 12°32' E 130°57'0 0.0
2020-Jan-16 12:00S 12°32' E 130°57'0 0.0
2020-Jan-16 10:59S 12°32' E 130°57'0 0.0
2020-Jan-16 09:29S 12°32' E 130°57'0 0.0
2020-Jan-16 08:29S 12°32' E 130°57'0 0.0
2020-Jan-16 04:28S 12°32' E 130°56'0 0.1
2020-Jan-16 03:58S 12°32' E 130°56'0 0.0
2020-Jan-16 02:58S 12°32' E 130°56'0 0.0
2020-Jan-16 02:28S 12°32' E 130°56'0 0.0
2020-Jan-16 01:28S 12°32' E 130°56'0 0.0
2020-Jan-15 23:28S 12°32' E 130°57'20199968.5
2020-Jan-15 23:16S 42°53' E 147°20'0 0.0
2020-Jan-15 22:28S 42°53' E 147°20'201944311.3
2020-Jan-15 22:25S 12°32' E 130°57'0 0.0
2020-Jan-15 19:58S 12°32' E 130°57'20197933.5
2020-Jan-15 19:43S 42°53' E 147°20'20198092.5
2020-Jan-15 19:28S 12°32' E 130°57'201920130.4
2020-Jan-15 19:22S 42°53' E 147°20'20191442.7
2020-Jan-15 17:58S 12°32' E 130°56'0 0.0
2020-Jan-15 13:55S 12°32' E 130°56'0 0.1
2020-Jan-15 12:10S 12°32' E 130°57'0 0.0
2020-Jan-15 11:16S 12°32' E 130°57'0 0.0
2020-Jan-15 09:28S 12°32' E 130°57'0 0.0
2020-Jan-15 08:28S 12°32' E 130°57'0 0.0
2020-Jan-15 04:58S 12°32' E 130°56'0 0.0
2020-Jan-15 03:28S 12°32' E 130°56'0 0.0
2020-Jan-15 02:28S 12°32' E 130°56'0 0.0
2020-Jan-15 01:25S 12°32' E 130°56'0 0.0
2020-Jan-14 23:55S 12°32' E 130°56'0 0.0
2020-Jan-14 21:28S 12°32' E 130°57'0 0.0
2020-Jan-14 20:55S 12°32' E 130°57'0 0.0
2020-Jan-14 19:28S 12°32' E 130°57'0 0.0
2020-Jan-14 18:28S 12°32' E 130°57'0 0.0
2020-Jan-14 17:58S 12°32' E 130°57'0 0.1
2020-Jan-14 17:28S 12°32' E 130°56'0 0.0
2020-Jan-14 16:58S 12°32' E 130°56'0 0.0
2020-Jan-14 14:58S 12°32' E 130°56'0 0.0
2020-Jan-14 14:28S 12°32' E 130°56'0 0.0
2020-Jan-14 13:28S 12°32' E 130°56'0 0.1
2020-Jan-14 11:58S 12°32' E 130°57'0 0.0
2020-Jan-14 11:28S 12°32' E 130°57'0 0.0
2020-Jan-14 10:58S 12°32' E 130°57'0 0.0
2020-Jan-14 09:58S 12°32' E 130°57'0 0.0
2020-Jan-14 07:28S 12°32' E 130°57'0 0.0
2020-Jan-14 05:55S 12°32' E 130°57'0 0.1
2020-Jan-14 05:28S 12°32' E 130°57'0 0.0
2020-Jan-14 00:58S 12°32' E 130°56'20218598.4
2020-Jan-14 00:44S 42°54' E 147°24'4 0.9
2020-Jan-13 20:30S 42°57' E 147°22'202349540.6
2020-Jan-13 20:28S 12°32' E 130°57'2024822.3
2020-Jan-13 18:00S 42°59' E 147°20'202452035.5
2020-Jan-13 17:58S 12°32' E 130°57'20242109.2
2020-Jan-13 17:00S 42°59' E 147°20'202447928.3
2020-Jan-13 16:58S 12°32' E 130°56'2024408.0
2020-Jan-13 12:00S 42°59' E 147°20'202453175.1
2020-Jan-13 11:58S 12°32' E 130°57'20242106.1
2020-Jan-13 11:00S 42°59' E 147°20'202447303.8
2020-Jan-13 10:58S 12°32' E 130°57'2024684.5
2020-Jan-13 08:00S 42°59' E 147°20'202446697.5
2020-Jan-13 07:58S 12°32' E 130°57'20241389.2
2020-Jan-13 06:30S 42°59' E 147°20'202447926.9
2020-Jan-13 06:28S 12°32' E 130°57'20241388.1
2020-Jan-13 05:00S 42°59' E 147°20'202446698.7
2020-Jan-13 04:58S 12°32' E 130°57'20244412.5
2020-Jan-13 04:30S 42°59' E 147°20'202452035.7
2020-Jan-13 04:28S 12°32' E 130°57'20244407.1
2020-Jan-13 04:00S 42°59' E 147°20'202422416.0
2020-Jan-13 03:55S 12°32' E 130°56'20244929.1
2020-Jan-13 03:30S 42°59' E 147°20'202448894.2
2020-Jan-13 03:28S 12°32' E 130°56'20241389.0
2020-Jan-13 02:01S 42°59' E 147°20'202448569.4
2020-Jan-13 01:58S 12°32' E 130°56'20244407.4
2020-Jan-13 01:30S 42°59' E 147°20'202449560.8
2020-Jan-13 01:28S 12°32' E 130°56'20242109.9
2020-Jan-13 00:30S 42°59' E 147°20'202448896.0
2020-Jan-13 00:28S 12°32' E 130°56'2024511.0
2020-Jan-12 20:30S 42°59' E 147°20'202422279.0
2020-Jan-12 20:25S 12°32' E 130°57'20241059.8
2020-Jan-12 18:30S 42°59' E 147°20'202447929.7
2020-Jan-12 18:28S 12°32' E 130°57'20242112.9
2020-Jan-12 17:30S 42°59' E 147°20'202447617.3
2020-Jan-12 17:28S 12°32' E 130°56'20242119.7
2020-Jan-12 16:31S 42°59' E 147°20'202445533.8
2020-Jan-12 16:28S 12°32' E 130°56'20244434.2
2020-Jan-12 16:00S 42°59' E 147°20'202447617.3
2020-Jan-12 15:58S 12°32' E 130°56'20244407.4
2020-Jan-12 15:30S 42°59' E 147°20'202447307.6
2020-Jan-12 15:28S 12°32' E 130°56'2033687.5
2020-Jan-12 12:30S 43°06' E 147°26'203347209.8
2020-Jan-12 12:28S 12°32' E 130°56'20372130.3
2020-Jan-12 11:30S 43°09' E 147°31'203721630.0
2020-Jan-12 11:25S 12°32' E 130°56'20422251.8
2020-Jan-12 10:30S 43°13' E 147°34'204221809.4
2020-Jan-12 10:25S 12°32' E 130°57'0 0.0
2020-Jan-12 08:58S 12°32' E 130°57'204715985.4
2020-Jan-12 08:50S 43°16' E 147°42'20475536.7
2020-Jan-12 08:28S 12°32' E 130°57'20471400.2
2020-Jan-12 07:00S 43°17' E 147°39'204753008.0
2020-Jan-12 06:58S 12°32' E 130°57'2044516.6
2020-Jan-12 03:01S 43°22' E 147°21'204445705.0
2020-Jan-12 02:58S 12°32' E 130°56'20441042.4
2020-Jan-12 01:00S 43°22' E 147°21'204450747.8
2020-Jan-12 00:58S 12°32' E 130°56'20442129.8
2020-Jan-12 00:00S 43°22' E 147°21'204454107.1
2020-Jan-11 23:58S 12°32' E 130°56'20422131.0
2020-Jan-11 23:00S 43°19' E 147°23'204221751.3
2020-Jan-11 22:55S 12°32' E 130°56'20415011.6
2020-Jan-11 22:30S 43°16' E 147°26'204122536.8
2020-Jan-11 22:25S 12°32' E 130°56'20352241.9
2020-Jan-11 21:30S 43°09' E 147°25'203544659.9
2020-Jan-11 21:28S 12°32' E 130°56'20314469.2
2020-Jan-11 21:00S 43°06' E 147°24'203144583.6
2020-Jan-11 20:58S 12°32' E 130°56'2024506.5
2020-Jan-11 16:58S 42°59' E 147°20'202439381.6
2020-Jan-11 16:55S 12°32' E 130°56'20242133.4
2020-Jan-11 15:58S 42°59' E 147°20'20243642769.6
2020-Jan-11 15:58S 12°32' E 130°56'2024404.8
2020-Jan-11 10:58S 42°59' E 147°20'0 0.0
2020-Jan-11 06:28S 42°59' E 147°20'12 4.1
2020-Jan-11 03:31S 43°11' E 147°16'4 7.4
2020-Jan-11 03:01S 43°15' E 147°17'4 7.5
2020-Jan-11 02:26S 43°18' E 147°13'7 7.6
2020-Jan-11 01:30S 43°14' E 147°04'4 2.7
2020-Jan-11 00:00S 43°12' E 146°60'1 1.0
2020-Jan-10 23:15S 43°13' E 146°60'0 0.0
2020-Jan-10 17:30S 43°13' E 146°60'0 0.0
2020-Jan-10 17:00S 43°13' E 146°60'0 0.0
2020-Jan-10 15:27S 43°13' E 146°60'0 0.0
2020-Jan-10 12:27S 43°13' E 146°60'0 0.0
2020-Jan-10 10:27S 43°13' E 146°60'1 0.4
2020-Jan-10 08:30S 43°12' E 146°59'3 6.0
2020-Jan-10 08:00S 43°14' E 147°03'3 5.7
2020-Jan-10 07:29S 43°16' E 147°05'3 6.5
2020-Jan-10 07:01S 43°18' E 147°08'3 5.9
2020-Jan-10 06:30S 43°18' E 147°12'  
Track history (hours):
 
Tides and Currents Weather Stations Pressure Air Temp Water Temp Dewpoint Dewpoint Depression Visibility Wind Speed Wind Dir Waves Ship Positions

Young Endeavour (Australia)

Ship's website: http://www.youngendeavour.gov.au/

Last reported at 2020-Jan-19 13:00 UTC. Time now 2020-Jan-19 15:37 UTC.
Position S 12°32' E 130°57'.

Length 44 m; beam 7.8 m; draft 4 m.

Type: Other ship. MMSI: 503000136.

Date/timePositionNaut miles runAvg speedWind from/ knotsBaromVisibWave heightAir tempDewpointWater temp
2020-Jan-19 13:00S 12°32' E 130°57'0 0.0
2020-Jan-19 10:57S 12°32' E 130°57'0 0.1
2020-Jan-19 10:30S 12°32' E 130°57'0 0.1
2020-Jan-19 10:00S 12°32' E 130°57'0 0.0
2020-Jan-19 08:30S 12°32' E 130°57'0 0.0
2020-Jan-19 06:30S 12°32' E 130°57'20441027.1
2020-Jan-19 04:30S 43°15' E 147°36'2044237353.2
2020-Jan-19 04:30S 12°32' E 130°57'20382067.4
2020-Jan-19 03:31S 43°10' E 147°33'2038126503.6
2020-Jan-19 03:30S 12°32' E 130°57'2025815.4
2020-Jan-19 01:01S 43°00' E 147°22'2025142969.6
2020-Jan-19 01:00S 12°32' E 130°57'20234163.0
2020-Jan-19 00:31S 42°56' E 147°23'202331249.4
2020-Jan-19 00:27S 12°32' E 130°57'0 0.0
2020-Jan-18 21:59S 12°32' E 130°57'0 0.0
2020-Jan-18 21:30S 12°32' E 130°57'0 0.1
2020-Jan-18 20:30S 12°32' E 130°56'0 0.1
2020-Jan-18 19:27S 12°32' E 130°57'0 0.0
2020-Jan-18 17:57S 12°32' E 130°56'0 0.1
2020-Jan-18 17:30S 12°32' E 130°56'0 0.1
2020-Jan-18 16:30S 12°32' E 130°57'0 0.0
2020-Jan-18 15:30S 12°32' E 130°57'0 0.0
2020-Jan-18 15:00S 12°32' E 130°57'0 0.0
2020-Jan-18 13:30S 12°32' E 130°57'0 0.0
2020-Jan-18 10:26S 12°32' E 130°57'0 0.0
2020-Jan-18 10:00S 12°32' E 130°57'0 0.0
2020-Jan-18 06:27S 12°32' E 130°57'0 0.0
2020-Jan-18 05:51S 12°32' E 130°57'0 0.0
2020-Jan-18 04:00S 12°32' E 130°57'0 0.0
2020-Jan-18 01:59S 12°32' E 130°57'0 0.0
2020-Jan-18 00:57S 12°32' E 130°57'0 0.0
2020-Jan-18 00:00S 12°32' E 130°57'0 0.0
2020-Jan-17 19:59S 12°32' E 130°56'0 0.0
2020-Jan-17 18:30S 12°32' E 130°56'0 0.0
2020-Jan-17 17:29S 12°32' E 130°56'0 0.0
2020-Jan-17 16:29S 12°32' E 130°56'0 0.0
2020-Jan-17 15:00S 12°32' E 130°56'0 0.0
2020-Jan-17 11:30S 12°32' E 130°57'0 0.0
2020-Jan-17 08:29S 12°32' E 130°57'0 0.0
2020-Jan-17 07:00S 12°32' E 130°56'0 0.0
2020-Jan-17 05:00S 12°32' E 130°56'0 0.0
2020-Jan-17 04:29S 12°32' E 130°56'0 0.0
2020-Jan-17 04:00S 12°32' E 130°56'0 0.0
2020-Jan-17 02:26S 12°32' E 130°56'0 0.0
2020-Jan-17 00:26S 12°32' E 130°57'0 0.0
2020-Jan-16 17:29S 12°32' E 130°56'0 0.0
2020-Jan-16 16:59S 12°32' E 130°56'0 0.0
2020-Jan-16 13:59S 12°32' E 130°56'0 0.1
2020-Jan-16 12:59S 12°32' E 130°57'0 0.0
2020-Jan-16 12:29S 12°32' E 130°57'0 0.0
2020-Jan-16 12:00S 12°32' E 130°57'0 0.0
2020-Jan-16 10:59S 12°32' E 130°57'0 0.0
2020-Jan-16 09:29S 12°32' E 130°57'0 0.0
2020-Jan-16 08:29S 12°32' E 130°57'0 0.0
2020-Jan-16 04:28S 12°32' E 130°56'0 0.1
2020-Jan-16 03:58S 12°32' E 130°56'0 0.0
2020-Jan-16 02:58S 12°32' E 130°56'0 0.0
2020-Jan-16 02:28S 12°32' E 130°56'0 0.0
2020-Jan-16 01:28S 12°32' E 130°56'0 0.0
2020-Jan-15 23:28S 12°32' E 130°57'20199968.5
2020-Jan-15 23:16S 42°53' E 147°20'0 0.0
2020-Jan-15 22:28S 42°53' E 147°20'201944311.3
2020-Jan-15 22:25S 12°32' E 130°57'0 0.0
2020-Jan-15 19:58S 12°32' E 130°57'20197933.5
2020-Jan-15 19:43S 42°53' E 147°20'20198092.5
2020-Jan-15 19:28S 12°32' E 130°57'201920130.4
2020-Jan-15 19:22S 42°53' E 147°20'20191442.7
2020-Jan-15 17:58S 12°32' E 130°56'0 0.0
2020-Jan-15 13:55S 12°32' E 130°56'0 0.1
2020-Jan-15 12:10S 12°32' E 130°57'0 0.0
2020-Jan-15 11:16S 12°32' E 130°57'0 0.0
2020-Jan-15 09:28S 12°32' E 130°57'0 0.0
2020-Jan-15 08:28S 12°32' E 130°57'0 0.0
2020-Jan-15 04:58S 12°32' E 130°56'0 0.0
2020-Jan-15 03:28S 12°32' E 130°56'0 0.0
2020-Jan-15 02:28S 12°32' E 130°56'0 0.0
2020-Jan-15 01:25S 12°32' E 130°56'0 0.0
2020-Jan-14 23:55S 12°32' E 130°56'0 0.0
2020-Jan-14 21:28S 12°32' E 130°57'0 0.0
2020-Jan-14 20:55S 12°32' E 130°57'0 0.0
2020-Jan-14 19:28S 12°32' E 130°57'0 0.0
2020-Jan-14 18:28S 12°32' E 130°57'0 0.0
2020-Jan-14 17:58S 12°32' E 130°57'0 0.1
2020-Jan-14 17:28S 12°32' E 130°56'0 0.0
2020-Jan-14 16:58S 12°32' E 130°56'0 0.0
2020-Jan-14 14:58S 12°32' E 130°56'0 0.0
2020-Jan-14 14:28S 12°32' E 130°56'0 0.0
2020-Jan-14 13:28S 12°32' E 130°56'0 0.1
2020-Jan-14 11:58S 12°32' E 130°57'0 0.0
2020-Jan-14 11:28S 12°32' E 130°57'0 0.0
2020-Jan-14 10:58S 12°32' E 130°57'0 0.0
2020-Jan-14 09:58S 12°32' E 130°57'0 0.0
2020-Jan-14 07:28S 12°32' E 130°57'0 0.0
2020-Jan-14 05:55S 12°32' E 130°57'0 0.1
2020-Jan-14 05:28S 12°32' E 130°57'0 0.0
2020-Jan-14 00:58S 12°32' E 130°56'20218598.4
2020-Jan-14 00:44S 42°54' E 147°24'4 0.9
2020-Jan-13 20:30S 42°57' E 147°22'202349540.6
2020-Jan-13 20:28S 12°32' E 130°57'2024822.3
2020-Jan-13 18:00S 42°59' E 147°20'202452035.5
2020-Jan-13 17:58S 12°32' E 130°57'20242109.2
2020-Jan-13 17:00S 42°59' E 147°20'202447928.3
2020-Jan-13 16:58S 12°32' E 130°56'2024408.0
2020-Jan-13 12:00S 42°59' E 147°20'202453175.1
2020-Jan-13 11:58S 12°32' E 130°57'20242106.1
2020-Jan-13 11:00S 42°59' E 147°20'202447303.8
2020-Jan-13 10:58S 12°32' E 130°57'2024684.5
2020-Jan-13 08:00S 42°59' E 147°20'202446697.5
2020-Jan-13 07:58S 12°32' E 130°57'20241389.2
2020-Jan-13 06:30S 42°59' E 147°20'202447926.9
2020-Jan-13 06:28S 12°32' E 130°57'20241388.1
2020-Jan-13 05:00S 42°59' E 147°20'202446698.7
2020-Jan-13 04:58S 12°32' E 130°57'20244412.5
2020-Jan-13 04:30S 42°59' E 147°20'202452035.7
2020-Jan-13 04:28S 12°32' E 130°57'20244407.1
2020-Jan-13 04:00S 42°59' E 147°20'202422416.0
2020-Jan-13 03:55S 12°32' E 130°56'20244929.1
2020-Jan-13 03:30S 42°59' E 147°20'202448894.2
2020-Jan-13 03:28S 12°32' E 130°56'20241389.0
2020-Jan-13 02:01S 42°59' E 147°20'202448569.4
2020-Jan-13 01:58S 12°32' E 130°56'20244407.4
2020-Jan-13 01:30S 42°59' E 147°20'202449560.8
2020-Jan-13 01:28S 12°32' E 130°56'20242109.9
2020-Jan-13 00:30S 42°59' E 147°20'202448896.0
2020-Jan-13 00:28S 12°32' E 130°56'2024511.0
2020-Jan-12 20:30S 42°59' E 147°20'202422279.0
2020-Jan-12 20:25S 12°32' E 130°57'20241059.8
2020-Jan-12 18:30S 42°59' E 147°20'202447929.7
2020-Jan-12 18:28S 12°32' E 130°57'20242112.9
2020-Jan-12 17:30S 42°59' E 147°20'202447617.3
2020-Jan-12 17:28S 12°32' E 130°56'20242119.7
2020-Jan-12 16:31S 42°59' E 147°20'202445533.8
2020-Jan-12 16:28S 12°32' E 130°56'20244434.2
2020-Jan-12 16:00S 42°59' E 147°20'202447617.3
2020-Jan-12 15:58S 12°32' E 130°56'20244407.4
2020-Jan-12 15:30S 42°59' E 147°20'202447307.6
2020-Jan-12 15:28S 12°32' E 130°56'2033687.5
2020-Jan-12 12:30S 43°06' E 147°26'203347209.8
2020-Jan-12 12:28S 12°32' E 130°56'20372130.3
2020-Jan-12 11:30S 43°09' E 147°31'203721630.0
2020-Jan-12 11:25S 12°32' E 130°56'20422251.8
2020-Jan-12 10:30S 43°13' E 147°34'204221809.4
2020-Jan-12 10:25S 12°32' E 130°57'0 0.0
2020-Jan-12 08:58S 12°32' E 130°57'204715985.4
2020-Jan-12 08:50S 43°16' E 147°42'20475536.7
2020-Jan-12 08:28S 12°32' E 130°57'20471400.2
2020-Jan-12 07:00S 43°17' E 147°39'204753008.0
2020-Jan-12 06:58S 12°32' E 130°57'2044516.6
2020-Jan-12 03:01S 43°22' E 147°21'204445705.0
2020-Jan-12 02:58S 12°32' E 130°56'20441042.4
2020-Jan-12 01:00S 43°22' E 147°21'204450747.8
2020-Jan-12 00:58S 12°32' E 130°56'20442129.8
2020-Jan-12 00:00S 43°22' E 147°21'204454107.1
2020-Jan-11 23:58S 12°32' E 130°56'20422131.0
2020-Jan-11 23:00S 43°19' E 147°23'204221751.3
2020-Jan-11 22:55S 12°32' E 130°56'20415011.6
2020-Jan-11 22:30S 43°16' E 147°26'204122536.8
2020-Jan-11 22:25S 12°32' E 130°56'20352241.9
2020-Jan-11 21:30S 43°09' E 147°25'203544659.9
2020-Jan-11 21:28S 12°32' E 130°56'20314469.2
2020-Jan-11 21:00S 43°06' E 147°24'203144583.6
2020-Jan-11 20:58S 12°32' E 130°56'2024506.5
2020-Jan-11 16:58S 42°59' E 147°20'202439381.6
2020-Jan-11 16:55S 12°32' E 130°56'20242133.4
2020-Jan-11 15:58S 42°59' E 147°20'20243642769.6
2020-Jan-11 15:58S 12°32' E 130°56'2024404.8
2020-Jan-11 10:58S 42°59' E 147°20'0 0.0
2020-Jan-11 06:28S 42°59' E 147°20'12 4.1
2020-Jan-11 03:31S 43°11' E 147°16'4 7.4
2020-Jan-11 03:01S 43°15' E 147°17'4 7.5
2020-Jan-11 02:26S 43°18' E 147°13'7 7.6
2020-Jan-11 01:30S 43°14' E 147°04'4 2.7
2020-Jan-11 00:00S 43°12' E 146°60'1 1.0
2020-Jan-10 23:15S 43°13' E 146°60'0 0.0
2020-Jan-10 17:30S 43°13' E 146°60'0 0.0
2020-Jan-10 17:00S 43°13' E 146°60'0 0.0
2020-Jan-10 15:27S 43°13' E 146°60'0 0.0
2020-Jan-10 12:27S 43°13' E 146°60'0 0.0
2020-Jan-10 10:27S 43°13' E 146°60'1 0.4
2020-Jan-10 08:30S 43°12' E 146°59'3 6.0
2020-Jan-10 08:00S 43°14' E 147°03'3 5.7
2020-Jan-10 07:29S 43°16' E 147°05'3 6.5
2020-Jan-10 07:01S 43°18' E 147°08'3 5.9
2020-Jan-10 06:30S 43°18' E 147°12'  

Dump ship's entire track history